Latest Weather Observations for Strathalbyn

IDS60801

Issued at 5:02 pm CST Thursday 9 April 2020 (issued every 10 minutes, with the page automatically refreshed every 10 minutes)

About weather observations | Map of weather stations | Latest weather observations for SA | Other Formats
Station Details ID: 024580 Name: STRATHALBYN RACECOURSE Lat: -35.28 Lon: 138.89 Height: 58.0 m
Data from the previous 72 hours. | See also: Recent months at Strathalbyn
Date/Time
CST
Temp
°C
App
Temp
°C
Dew
Point
°C
Rel
Hum
%
Delta-T
°C
Wind Press
QNH
hPa
Press
MSL
hPa
Rain since
9am
mm
Dir  Spd
km/h
Gust
km/h
Spd
kts
Gust
kts
09/05:00pm 19.3 16.1 10.0 55 5.0 S 17 24 9 13 1021.6 1021.5 0.0
09/04:30pm 20.2 17.5 8.8 48 6.0 SSE 13 19 7 10 1021.4 1021.3 0.0
09/04:00pm 20.2 18.4 9.5 50 5.7 SSE 9 17 5 9 1021.4 1021.3 0.0
09/03:30pm 20.3 17.0 9.5 50 5.7 SSE 17 24 9 13 1021.6 1021.5 0.0
09/03:00pm 20.8 16.5 9.4 48 6.1 S 22 30 12 16 1021.7 1021.6 0.0
09/02:30pm 20.9 18.7 7.9 43 6.7 SE 9 17 5 9 1021.7 1021.6 0.0
09/02:00pm 21.3 18.9 8.6 44 6.7 S 11 20 6 11 1021.9 1021.8 0.0
09/01:30pm 20.9 18.0 8.2 44 6.6 SE 13 20 7 11 1022.6 1022.5 0.0
09/01:00pm 20.5 17.8 8.8 47 6.2 SSE 13 20 7 11 1023.0 1022.9 0.0
09/12:30pm 20.6 18.7 9.2 48 6.0 SE 9 19 5 10 1023.4 1023.3 0.0
09/12:00pm 19.7 17.2 8.1 47 6.0 E 11 22 6 12 1024.0 1023.9 0.0
09/11:30am 19.3 17.2 8.3 49 5.7 ESE 9 15 5 8 1024.6 1024.5 0.0
09/11:00am 18.7 17.3 8.9 53 5.1 SE 6 13 3 7 1024.8 1024.7 0.0
09/10:30am 17.4 15.8 8.8 57 4.4 NNE 7 13 4 7 1024.9 1024.8 0.0
09/10:00am 16.7 15.4 9.1 61 3.9 NNW 6 11 3 6 1025.3 1025.2 0.0
09/09:30am 15.1 14.5 8.8 66 3.2 WNW 2 7 1 4 1025.5 1025.4 0.0
09/09:00am 14.0 12.7 9.2 73 2.4 NNW 6 7 3 4 1025.8 1025.7 0.0
09/08:30am 12.7 11.3 9.7 82 1.5 N 7 11 4 6 1026.0 1025.9 0.0
09/08:00am 11.6 10.1 10.5 93 0.6 NNW 9 11 5 6 1026.1 1026.0 0.0
09/07:30am 9.5 8.1 8.9 96 0.3 N 6 7 3 4 1026.3 1026.2 0.0
09/07:00am 7.7 5.9 7.1 96 0.3 N 6 7 3 4 1026.1 1026.0 0.0
09/06:30am 7.2 5.1 6.5 95 0.3 WNW 7 9 4 5 1026.0 1025.9 0.0
09/06:00am 7.3 5.3 6.4 94 0.4 NW 6 7 3 4 1025.6 1025.5 0.0
09/05:30am 7.8 6.3 6.9 94 0.4 N 4 6 2 3 1025.6 1025.5 0.0
09/05:00am 8.2 7.0 6.3 88 0.9 NNW 2 6 1 3 1025.1 1025.0 0.0
09/04:30am 9.7 7.2 8.3 91 0.7 W 11 13 6 7 1024.9 1024.8 0.0
09/04:00am 9.0 7.2 7.0 87 0.9 WSW 6 9 3 5 1025.3 1025.2 0.0
09/03:30am 10.3 8.2 8.2 87 1.0 WSW 9 11 5 6 1025.1 1025.0 0.0
09/03:00am 10.4 8.4 8.5 88 0.9 WSW 9 11 5 6 1025.3 1025.2 0.0
09/02:30am 10.3 8.2 8.4 88 0.9 SW 9 11 5 6 1025.3 1025.2 0.0
09/02:00am 10.7 9.1 8.8 88 0.9 SW 7 9 4 5 1025.4 1025.3 0.0
09/01:30am 10.8 9.4 8.7 87 1.0 SSW 6 7 3 4 1025.7 1025.6 0.0
09/01:00am 11.6 10.4 10.2 91 0.7 SW 7 9 4 5 1025.8 1025.7 0.0
09/12:30am 11.8 10.6 10.4 91 0.7 SW 7 9 4 5 1025.6 1025.5 0.0
09/12:00am 12.4 11.1 11.3 93 0.6 SSW 9 11 5 6 1025.6 1025.5 0.0
 
Date/Time
CST
Temp
°C
App
Temp
°C
Dew
Point
°C
Rel
Hum
%
Delta-T
°C
Wind Press
QNH
hPa
Press
MSL
hPa
Rain since
9am
mm
Dir  Spd
km/h
Gust
km/h
Spd
kts
Gust
kts
08/11:30pm 12.3 11.3 10.9 91 0.7 SW 7 9 4 5 1025.6 1025.5 0.0
08/11:00pm 12.6 11.7 11.2 91 0.7 SW 7 9 4 5 1025.7 1025.6 0.0
08/10:30pm 12.9 11.6 11.3 90 0.8 SW 9 13 5 7 1025.8 1025.7 0.0
08/10:00pm 13.0 11.8 11.6 91 0.7 WSW 9 13 5 7 1025.6 1025.5 0.0
08/09:30pm 12.7 11.3 10.8 88 1.0 WSW 9 11 5 6 1025.6 1025.5 0.0
08/09:00pm 12.9 11.4 10.6 86 1.2 SW 9 13 5 7 1025.5 1025.4 0.0
08/08:30pm 12.8 11.2 10.3 85 1.3 SW 9 13 5 7 1025.3 1025.2 0.0
08/08:00pm 13.2 11.7 10.6 84 1.4 SW 9 11 5 6 1025.2 1025.1 0.0
08/07:30pm 13.6 11.4 10.8 83 1.5 SSW 13 15 7 8 1024.9 1024.8 0.0
08/07:00pm 14.0 11.4 10.6 80 1.8 SSW 15 19 8 10 1024.6 1024.5 0.0
08/06:30pm 14.4 11.4 10.6 78 2.0 S 17 20 9 11 1024.5 1024.4 0.0
08/06:00pm 15.0 11.4 10.4 74 2.4 S 20 26 11 14 1024.4 1024.3 0.0
08/05:30pm 15.9 11.8 10.0 68 3.1 S 22 30 12 16 1024.1 1024.0 0.0
08/05:00pm 16.6 12.0 9.8 64 3.6 S 24 32 13 17 1023.8 1023.7 0.0
08/04:30pm 17.3 12.7 9.7 61 4.0 S 24 32 13 17 1023.7 1023.6 0.0
08/04:00pm 17.6 13.6 9.2 58 4.4 S 20 28 11 15 1023.8 1023.7 0.0
08/03:30pm 17.8 13.5 9.2 57 4.5 S 22 30 12 16 1023.8 1023.7 0.0
08/03:00pm 17.7 13.9 7.4 51 5.2 SSE 17 26 9 14 1023.8 1023.7 0.0
08/02:30pm 18.5 15.4 7.3 48 5.6 SE 13 20 7 11 1023.9 1023.8 0.0
08/02:00pm 17.6 13.3 6.8 49 5.4 S 19 28 10 15 1024.1 1024.0 0.0
08/01:30pm 17.9 13.9 6.7 48 5.6 SE 17 26 9 14 1024.3 1024.2 0.0
08/01:00pm 17.4 12.7 6.0 47 5.6 SE 20 30 11 16 1024.6 1024.5 0.0
08/12:30pm 17.3 13.2 6.2 48 5.4 SE 17 24 9 13 1025.1 1025.0 0.0
08/12:00pm 16.7 12.2 6.2 50 5.1 SE 19 26 10 14 1025.6 1025.5 0.0
08/11:30am 16.6 12.0 6.7 52 4.9 SSE 20 30 11 16 1025.8 1025.7 0.0
08/11:00am 15.0 10.2 5.8 54 4.4 SE 20 32 11 17 1026.0 1025.9 0.0
08/10:30am 15.0 10.8 5.8 54 4.4 SE 17 24 9 13 1026.3 1026.2 0.0
08/10:00am 15.2 11.2 6.5 56 4.2 ESE 17 24 9 13 1026.4 1026.3 0.0
08/09:30am 14.3 10.2 6.4 59 3.8 SE 17 22 9 12 1026.6 1026.5 0.0
08/09:00am 13.9 10.0 7.0 63 3.3 ESE 17 24 9 13 1026.5 1026.4 0.0
08/08:30am 13.1 9.1 6.7 65 3.1 ESE 17 26 9 14 1026.3 1026.2 0.0
08/08:00am 12.7 10.3 8.6 76 2.0 ESE 11 19 6 10 1026.1 1026.0 0.0
08/07:30am 12.1 10.5 8.9 81 1.6 SE 7 11 4 6 1025.7 1025.6 0.0
08/07:00am 11.7 9.5 9.3 85 1.2 SE 11 13 6 7 1025.3 1025.2 0.0
08/06:30am 11.5 10.2 9.2 86 1.1 SW 6 7 3 4 1025.0 1024.9 0.0
08/06:00am 11.3 10.7 9.0 86 1.1 NNW 2 6 1 3 1024.8 1024.7 0.0
08/05:30am 11.0 10.4 8.8 86 1.1 NNW 2 7 1 4 1024.6 1024.5 0.0
08/05:00am 10.8 9.3 8.6 86 1.1 NW 6 7 3 4 1024.3 1024.2 0.0
08/04:30am 10.4 8.7 8.2 86 1.1 NNW 7 7 4 4 1024.1 1024.0 0.0
08/04:00am 9.8 9.1 7.1 83 1.3 CALM 0 0 0 0 1024.1 1024.0 0.0
08/03:30am 10.2 8.2 7.3 82 1.4 SW 7 9 4 5 1024.0 1023.9 0.0
08/03:00am 10.0 7.6 7.1 82 1.4 SW 9 9 5 5 1024.0 1023.9 0.0
08/02:30am 9.3 7.1 6.4 82 1.3 SW 7 7 4 4 1024.1 1024.0 0.0
08/02:00am 9.8 7.9 6.7 81 1.5 SW 6 7 3 4 1024.2 1024.1 0.0
08/01:30am 10.5 8.7 7.0 79 1.7 SW 6 7 3 4 1024.2 1024.1 0.0
08/01:00am 11.3 9.5 7.8 79 1.7 SSW 7 9 4 5 1024.1 1024.0 0.0
08/12:30am 11.3 9.1 7.8 79 1.7 SW 9 11 5 6 1023.9 1023.8 0.0
08/12:00am 11.3 9.1 7.8 79 1.7 SW 9 11 5 6 1023.8 1023.7 0.0
 
Date/Time
CST
Temp
°C
App
Temp
°C
Dew
Point
°C
Rel
Hum
%
Delta-T
°C
Wind Press
QNH
hPa
Press
MSL
hPa
Rain since
9am
mm
Dir  Spd
km/h
Gust
km/h
Spd
kts
Gust
kts
07/11:30pm 12.1 10.0 8.4 78 1.8 SSW 9 11 5 6 1023.9 1023.8 0.0
07/11:00pm 13.0 10.7 9.1 77 2.0 SSW 11 15 6 8 1024.2 1024.1 0.0
07/10:30pm 13.2 11.1 9.8 80 1.7 SSW 11 15 6 8 1024.1 1024.0 0.0
07/10:00pm 12.4 10.5 9.2 81 1.6 WSW 9 13 5 7 1024.0 1023.9 0.0
07/09:30pm 12.5 10.3 9.5 82 1.5 WSW 11 13 6 7 1023.9 1023.8 0.0
07/09:00pm 12.8 11.0 9.4 80 1.7 WSW 9 11 5 6 1023.7 1023.6 0.0
07/08:30pm 13.2 11.4 9.6 79 1.8 SW 9 13 5 7 1023.7 1023.6 0.0
07/08:00pm 13.4 10.9 9.8 79 1.9 SSW 13 15 7 8 1023.4 1023.3 0.0
07/07:30pm 13.9 11.9 10.1 78 2.0 SSW 11 13 6 7 1023.2 1023.1 0.0
07/07:00pm 14.4 12.0 10.2 76 2.2 S 13 17 7 9 1023.1 1023.0 0.0
07/06:30pm 14.8 11.7 10.2 74 2.4 S 17 20 9 11 1022.7 1022.6 0.0
07/06:00pm 15.3 11.0 9.4 68 3.0 SSW 22 26 12 14 1022.3 1022.2 0.0
07/05:30pm 15.8 12.1 9.5 66 3.3 SSW 19 26 10 14 1022.1 1022.0 0.0
07/05:00pm 16.3 12.1 9.9 66 3.4 SSW 22 28 12 15 1021.8 1021.7 0.0
07/04:30pm 16.7 12.8 10.8 68 3.2 SSW 22 30 12 16 1021.7 1021.6 0.0
07/04:00pm 17.0 13.1 10.8 67 3.3 S 22 28 12 15 1021.7 1021.6 0.0
07/03:30pm 17.4 13.8 10.5 64 3.7 SSW 20 24 11 13 1021.8 1021.7 0.0
07/03:00pm 17.3 13.9 10.4 64 3.7 SSW 19 24 10 13 1022.0 1021.9 0.0
07/02:30pm 16.7 14.0 11.8 73 2.7 S 17 22 9 12 1022.1 1022.0 0.0
07/02:00pm 17.2 14.3 11.0 67 3.3 SSE 17 22 9 12 1022.2 1022.1 0.0
07/01:30pm 17.7 14.4 11.0 65 3.6 S 19 24 10 13 1022.4 1022.3 0.0
07/01:00pm 17.4 14.4 10.8 65 3.6 S 17 20 9 11 1022.7 1022.6 0.0
07/12:30pm 17.7 15.8 10.6 63 3.8 SE 11 17 6 9 1023.0 1022.9 0.0
07/12:00pm 17.7 15.1 10.8 64 3.7 SSE 15 19 8 10 1023.3 1023.2 0.0
07/11:30am 17.2 15.0 10.8 66 3.4 SSE 13 19 7 10 1023.5 1023.4 0.0
07/11:00am 17.6 15.8 10.9 65 3.6 S 11 19 6 10 1023.7 1023.6 0.0
07/10:30am 17.1 15.3 10.7 66 3.4 S 11 17 6 9 1023.9 1023.8 0.0
07/10:00am 17.2 16.1 10.6 65 3.5 SE 7 11 4 6 1024.0 1023.9 0.0
07/09:30am 15.6 14.7 11.2 75 2.3 SW 7 9 4 5 1024.1 1024.0 0.0
07/09:00am 14.9 14.3 12.4 85 1.4 S 7 11 4 6 1024.1 1024.0 0.0
07/08:30am 14.4 14.8 12.6 89 1.0 SSW 2 7 1 4 1024.1 1024.0 0.0
07/08:00am 13.8 14.6 12.4 91 0.8 CALM 0 0 0 0 1023.8 1023.7 0.0
07/07:30am 13.5 14.2 12.1 91 0.8 CALM 0 6 0 3 1023.3 1023.2 0.0
07/07:00am 13.6 13.5 12.0 90 0.9 E 4 7 2 4 1023.1 1023.0 0.0
07/06:30am 13.7 13.2 12.1 90 0.9 NNW 6 7 3 4 1022.8 1022.7 0.0
07/06:00am 13.7 13.0 12.1 90 0.9 NNW 7 7 4 4 1022.7 1022.6 0.0
07/05:30am 13.7 14.3 11.8 88 1.0 CALM 0 0 0 0 1022.3 1022.2 0.0
07/05:00am 13.7 14.2 11.6 87 1.1 CALM 0 0 0 0 1022.3 1022.2 0.0
07/04:30am 13.9 13.3 11.8 87 1.1 NNE 6 6 3 3 1022.2 1022.1 0.0
07/04:00am 14.0 13.5 12.0 88 1.1 NNE 6 7 3 4 1022.2 1022.1 0.0
07/03:30am 13.7 14.2 11.6 87 1.1 CALM 0 0 0 0 1022.1 1022.0 0.0
07/03:00am 13.8 14.3 11.5 86 1.2 CALM 0 0 0 0 1022.4 1022.3 0.0
07/02:30am 13.9 14.3 11.4 85 1.3 CALM 0 0 0 0 1022.4 1022.3 0.0
07/02:00am 14.0 13.1 11.5 85 1.3 N 7 7 4 4 1022.5 1022.4 0.0
07/01:30am 14.1 14.3 11.8 86 1.2 N 2 6 1 3 1022.8 1022.7 0.0
07/01:00am 13.7 13.4 11.4 86 1.2 N 4 7 2 4 1022.8 1022.7 0.0
07/12:30am 13.4 12.6 11.1 86 1.2 N 6 7 3 4 1022.9 1022.8 0.0
07/12:00am 13.3 12.3 11.0 86 1.2 N 7 9 4 5 1023.2 1023.1 0.0
 
Date/Time
CST
Temp
°C
App
Temp
°C
Dew
Point
°C
Rel
Hum
%
Delta-T
°C
Wind Press
QNH
hPa
Press
MSL
hPa
Rain since
9am
mm
Dir  Spd
km/h
Gust
km/h
Spd
kts
Gust
kts
06/11:30pm 13.5 13.5 11.0 85 1.3 E 2 7 1 4 1023.1 1023.0 0.0
06/11:00pm 14.0 13.7 11.5 85 1.3 SW 4 7 2 4 1023.3 1023.2 0.0
06/10:30pm 13.2 11.8 10.9 86 1.2 NW 9 11 5 6 1023.6 1023.5 0.0
06/10:00pm 13.0 12.1 10.5 85 1.3 N 6 9 3 5 1023.5 1023.4 0.0
06/09:30pm 12.8 11.8 10.2 84 1.3 WNW 6 7 3 4 1023.4 1023.3 0.0
06/09:00pm 13.3 12.3 10.3 82 1.6 W 6 6 3 3 1023.3 1023.2 0.0
06/08:30pm 13.9 13.0 10.5 80 1.8 WSW 6 7 3 4 1023.1 1023.0 0.0
06/08:00pm 14.3 14.5 10.5 78 2.0 CALM 0 0 0 0 1022.9 1022.8 0.0
06/07:30pm 14.9 13.8 10.7 76 2.2 S 7 9 4 5 1022.8 1022.7 0.0
06/07:00pm 15.6 14.1 10.6 72 2.7 S 9 11 5 6 1022.6 1022.5 0.0
06/06:30pm 16.2 14.7 10.7 70 2.9 SSE 9 13 5 7 1022.4 1022.3 0.0
06/06:00pm 16.9 15.4 10.5 66 3.4 SE 9 13 5 7 1022.0 1021.9 0.0
06/05:30pm 17.4 15.4 10.3 63 3.8 SSE 11 13 6 7 1021.9 1021.8 0.0

Other formats

Comma delimited format used in spreadsheet applications
http://www.bom.gov.au/fwo/IDS60801/IDS60801.94814.axf

JavaScript Object Notation format (JSON) in row-major order
http://www.bom.gov.au/fwo/IDS60801/IDS60801.94814.json

Data quality

Most of these data are generated automatically and are frequently updated. Quality checks on data are not normally performed. It is possible for incorrect values to appear. Refer to information at About Latest Weather Observations and please check the disclaimer before using these data.